sensor_id;sensor_type;location;lat;lon;timestamp;temperature;humidity
16154;DHT22;8182;55.648;13.208;2023-12-14T00:01:49;-0.10;1.00
16154;DHT22;8182;55.648;13.208;2023-12-14T00:04:17;-0.10;1.00
16154;DHT22;8182;55.648;13.208;2023-12-14T00:06:44;-0.10;1.00
16154;DHT22;8182;55.648;13.208;2023-12-14T00:09:12;-0.20;1.00
16154;DHT22;8182;55.648;13.208;2023-12-14T00:11:39;-0.20;1.00
16154;DHT22;8182;55.648;13.208;2023-12-14T00:14:07;-0.10;1.00
16154;DHT22;8182;55.648;13.208;2023-12-14T00:16:34;-0.10;1.00
16154;DHT22;8182;55.648;13.208;2023-12-14T00:19:01;-0.10;1.00
16154;DHT22;8182;55.648;13.208;2023-12-14T00:21:28;-0.10;1.00
16154;DHT22;8182;55.648;13.208;2023-12-14T00:23:55;-0.10;1.00
16154;DHT22;8182;55.648;13.208;2023-12-14T00:26:24;-0.10;1.00
16154;DHT22;8182;55.648;13.208;2023-12-14T00:28:50;-0.10;1.00
16154;DHT22;8182;55.648;13.208;2023-12-14T00:31:17;-0.10;1.00
16154;DHT22;8182;55.648;13.208;2023-12-14T00:33:44;-0.10;1.00
16154;DHT22;8182;55.648;13.208;2023-12-14T00:36:17;-0.10;1.00
16154;DHT22;8182;55.648;13.208;2023-12-14T00:38:44;-0.10;1.00
16154;DHT22;8182;55.648;13.208;2023-12-14T00:41:12;0.00;1.00
16154;DHT22;8182;55.648;13.208;2023-12-14T00:43:40;-0.10;1.00
16154;DHT22;8182;55.648;13.208;2023-12-14T00:46:07;-0.10;1.00
16154;DHT22;8182;55.648;13.208;2023-12-14T00:48:35;-0.10;1.00
16154;DHT22;8182;55.648;13.208;2023-12-14T00:51:02;-0.10;1.00
16154;DHT22;8182;55.648;13.208;2023-12-14T00:53:29;-0.10;1.00
16154;DHT22;8182;55.648;13.208;2023-12-14T00:55:56;-0.10;1.00
16154;DHT22;8182;55.648;13.208;2023-12-14T00:58:23;-0.10;1.00
16154;DHT22;8182;55.648;13.208;2023-12-14T01:00:51;-0.10;1.00
16154;DHT22;8182;55.648;13.208;2023-12-14T01:03:20;-0.10;1.00
16154;DHT22;8182;55.648;13.208;2023-12-14T01:05:47;-0.10;1.00
16154;DHT22;8182;55.648;13.208;2023-12-14T01:08:14;-0.10;1.00
16154;DHT22;8182;55.648;13.208;2023-12-14T01:10:41;-0.10;1.00
16154;DHT22;8182;55.648;13.208;2023-12-14T01:13:08;-0.10;1.00
16154;DHT22;8182;55.648;13.208;2023-12-14T01:15:35;-0.10;1.00
16154;DHT22;8182;55.648;13.208;2023-12-14T01:18:04;-0.10;1.00
16154;DHT22;8182;55.648;13.208;2023-12-14T01:20:31;-0.20;1.00
16154;DHT22;8182;55.648;13.208;2023-12-14T01:22:58;-0.20;1.00
16154;DHT22;8182;55.648;13.208;2023-12-14T01:25:25;-0.10;1.00
16154;DHT22;8182;55.648;13.208;2023-12-14T01:27:52;-0.10;1.00
16154;DHT22;8182;55.648;13.208;2023-12-14T01:30:19;-0.20;1.00
16154;DHT22;8182;55.648;13.208;2023-12-14T01:32:47;-0.20;1.00
16154;DHT22;8182;55.648;13.208;2023-12-14T01:35:15;-0.20;1.00
16154;DHT22;8182;55.648;13.208;2023-12-14T01:37:42;-0.20;1.00
16154;DHT22;8182;55.648;13.208;2023-12-14T01:40:10;-0.20;1.00
16154;DHT22;8182;55.648;13.208;2023-12-14T01:42:37;-0.20;1.00
16154;DHT22;8182;55.648;13.208;2023-12-14T01:45:06;-0.20;1.00
16154;DHT22;8182;55.648;13.208;2023-12-14T01:47:33;-0.20;1.00
16154;DHT22;8182;55.648;13.208;2023-12-14T01:50:00;-0.30;1.00
16154;DHT22;8182;55.648;13.208;2023-12-14T01:52:28;-0.30;1.00
16154;DHT22;8182;55.648;13.208;2023-12-14T01:54:55;-0.40;1.00
16154;DHT22;8182;55.648;13.208;2023-12-14T01:57:24;-0.40;1.00
16154;DHT22;8182;55.648;13.208;2023-12-14T01:59:51;-0.40;1.00
16154;DHT22;8182;55.648;13.208;2023-12-14T02:02:18;-0.60;1.00
16154;DHT22;8182;55.648;13.208;2023-12-14T02:04:46;-0.70;1.00
16154;DHT22;8182;55.648;13.208;2023-12-14T02:07:13;-0.70;1.00
16154;DHT22;8182;55.648;13.208;2023-12-14T02:09:41;-0.70;1.00
16154;DHT22;8182;55.648;13.208;2023-12-14T02:12:08;-0.80;1.00
16154;DHT22;8182;55.648;13.208;2023-12-14T02:14:35;-0.90;1.00
16154;DHT22;8182;55.648;13.208;2023-12-14T02:17:03;-0.90;1.00
16154;DHT22;8182;55.648;13.208;2023-12-14T02:19:30;-0.90;1.00
16154;DHT22;8182;55.648;13.208;2023-12-14T02:21:58;-1.00;1.00
16154;DHT22;8182;55.648;13.208;2023-12-14T02:24:26;-0.90;1.00
16154;DHT22;8182;55.648;13.208;2023-12-14T02:26:53;-0.80;1.00
16154;DHT22;8182;55.648;13.208;2023-12-14T02:29:20;-1.00;1.00
16154;DHT22;8182;55.648;13.208;2023-12-14T02:31:47;-1.10;1.00
16154;DHT22;8182;55.648;13.208;2023-12-14T02:34:15;-1.10;1.00
16154;DHT22;8182;55.648;13.208;2023-12-14T02:36:42;-1.10;1.00
16154;DHT22;8182;55.648;13.208;2023-12-14T02:39:09;-1.10;1.00
16154;DHT22;8182;55.648;13.208;2023-12-14T02:41:38;-1.20;1.00
16154;DHT22;8182;55.648;13.208;2023-12-14T02:44:05;-1.00;1.00
16154;DHT22;8182;55.648;13.208;2023-12-14T02:46:32;-1.20;1.00
16154;DHT22;8182;55.648;13.208;2023-12-14T02:48:59;-1.20;1.00
16154;DHT22;8182;55.648;13.208;2023-12-14T02:51:26;-1.30;1.00
16154;DHT22;8182;55.648;13.208;2023-12-14T02:53:53;-1.20;1.00
16154;DHT22;8182;55.648;13.208;2023-12-14T02:56:22;-1.30;1.00
16154;DHT22;8182;55.648;13.208;2023-12-14T02:58:51;-1.30;1.00
16154;DHT22;8182;55.648;13.208;2023-12-14T03:01:20;-1.20;1.00
16154;DHT22;8182;55.648;13.208;2023-12-14T03:03:47;-1.30;1.00
16154;DHT22;8182;55.648;13.208;2023-12-14T03:06:13;-1.30;1.00
16154;DHT22;8182;55.648;13.208;2023-12-14T03:08:40;-1.30;1.00
16154;DHT22;8182;55.648;13.208;2023-12-14T03:11:07;-1.30;1.00
16154;DHT22;8182;55.648;13.208;2023-12-14T03:13:34;-1.30;1.00
16154;DHT22;8182;55.648;13.208;2023-12-14T03:16:04;-1.20;1.00
16154;DHT22;8182;55.648;13.208;2023-12-14T03:18:31;-1.20;1.00
16154;DHT22;8182;55.648;13.208;2023-12-14T03:20:58;-1.20;1.00
16154;DHT22;8182;55.648;13.208;2023-12-14T03:23:25;-1.30;1.00
16154;DHT22;8182;55.648;13.208;2023-12-14T03:25:52;-1.40;1.00
16154;DHT22;8182;55.648;13.208;2023-12-14T03:28:19;-1.40;1.00
16154;DHT22;8182;55.648;13.208;2023-12-14T03:30:46;-1.40;1.00
16154;DHT22;8182;55.648;13.208;2023-12-14T03:33:15;-1.30;1.00
16154;DHT22;8182;55.648;13.208;2023-12-14T03:35:42;-1.50;1.00
16154;DHT22;8182;55.648;13.208;2023-12-14T03:38:10;-1.60;1.00
16154;DHT22;8182;55.648;13.208;2023-12-14T03:40:36;-1.60;1.00
16154;DHT22;8182;55.648;13.208;2023-12-14T03:43:03;-1.70;1.00
16154;DHT22;8182;55.648;13.208;2023-12-14T03:45:30;-1.60;1.00
16154;DHT22;8182;55.648;13.208;2023-12-14T03:47:57;-1.60;1.00
16154;DHT22;8182;55.648;13.208;2023-12-14T03:50:26;-1.60;1.00
16154;DHT22;8182;55.648;13.208;2023-12-14T03:52:53;-1.60;1.00
16154;DHT22;8182;55.648;13.208;2023-12-14T03:55:20;-1.60;1.00
16154;DHT22;8182;55.648;13.208;2023-12-14T03:57:47;-1.70;1.00
16154;DHT22;8182;55.648;13.208;2023-12-14T04:00:15;-1.70;1.00
16154;DHT22;8182;55.648;13.208;2023-12-14T04:02:43;-1.70;1.00
16154;DHT22;8182;55.648;13.208;2023-12-14T04:05:10;-1.60;1.00
16154;DHT22;8182;55.648;13.208;2023-12-14T04:07:39;-1.70;1.00
16154;DHT22;8182;55.648;13.208;2023-12-14T04:10:07;-1.60;1.00
16154;DHT22;8182;55.648;13.208;2023-12-14T04:12:34;-1.60;1.00
16154;DHT22;8182;55.648;13.208;2023-12-14T04:15:02;-1.60;1.00
16154;DHT22;8182;55.648;13.208;2023-12-14T04:17:30;-1.60;1.00
16154;DHT22;8182;55.648;13.208;2023-12-14T04:19:57;-1.60;1.00
16154;DHT22;8182;55.648;13.208;2023-12-14T04:22:25;-1.70;1.00
16154;DHT22;8182;55.648;13.208;2023-12-14T04:24:54;-1.70;1.00
16154;DHT22;8182;55.648;13.208;2023-12-14T04:27:21;-1.80;1.00
16154;DHT22;8182;55.648;13.208;2023-12-14T04:29:52;-1.60;1.00
16154;DHT22;8182;55.648;13.208;2023-12-14T04:32:19;-1.80;1.00
16154;DHT22;8182;55.648;13.208;2023-12-14T04:34:47;-1.70;1.00
16154;DHT22;8182;55.648;13.208;2023-12-14T04:37:14;-1.80;1.00
16154;DHT22;8182;55.648;13.208;2023-12-14T04:39:41;-1.70;1.00
16154;DHT22;8182;55.648;13.208;2023-12-14T04:42:09;-1.80;1.00
16154;DHT22;8182;55.648;13.208;2023-12-14T04:44:36;-1.70;1.00
16154;DHT22;8182;55.648;13.208;2023-12-14T04:47:04;-1.60;1.00
16154;DHT22;8182;55.648;13.208;2023-12-14T04:49:31;-1.90;1.00
16154;DHT22;8182;55.648;13.208;2023-12-14T04:51:57;-1.90;1.00
16154;DHT22;8182;55.648;13.208;2023-12-14T04:54:24;-2.00;1.00
16154;DHT22;8182;55.648;13.208;2023-12-14T04:56:51;-2.10;1.00
16154;DHT22;8182;55.648;13.208;2023-12-14T04:59:20;-2.00;1.00
16154;DHT22;8182;55.648;13.208;2023-12-14T05:01:47;-1.90;1.00
16154;DHT22;8182;55.648;13.208;2023-12-14T05:04:14;-1.90;1.00
16154;DHT22;8182;55.648;13.208;2023-12-14T05:06:41;-1.80;1.00
16154;DHT22;8182;55.648;13.208;2023-12-14T05:09:08;-1.80;1.00
16154;DHT22;8182;55.648;13.208;2023-12-14T05:11:38;-1.70;1.00
16154;DHT22;8182;55.648;13.208;2023-12-14T05:14:05;-1.80;1.00
16154;DHT22;8182;55.648;13.208;2023-12-14T05:16:34;-2.00;1.00
16154;DHT22;8182;55.648;13.208;2023-12-14T05:19:01;-1.90;1.00
16154;DHT22;8182;55.648;13.208;2023-12-14T05:21:28;-1.80;1.00
16154;DHT22;8182;55.648;13.208;2023-12-14T05:23:55;-1.80;1.00
16154;DHT22;8182;55.648;13.208;2023-12-14T05:26:22;-1.70;1.00
16154;DHT22;8182;55.648;13.208;2023-12-14T05:28:49;-1.70;1.00
16154;DHT22;8182;55.648;13.208;2023-12-14T05:31:16;-1.70;1.00
16154;DHT22;8182;55.648;13.208;2023-12-14T05:33:45;-1.70;1.00
16154;DHT22;8182;55.648;13.208;2023-12-14T05:36:12;-1.60;1.00
16154;DHT22;8182;55.648;13.208;2023-12-14T05:38:39;-1.70;1.00
16154;DHT22;8182;55.648;13.208;2023-12-14T05:41:06;-1.70;1.00
16154;DHT22;8182;55.648;13.208;2023-12-14T05:43:33;-1.70;1.00
16154;DHT22;8182;55.648;13.208;2023-12-14T05:46:02;-1.70;1.00
16154;DHT22;8182;55.648;13.208;2023-12-14T05:48:29;-1.80;1.00
16154;DHT22;8182;55.648;13.208;2023-12-14T05:50:59;-1.80;1.00
16154;DHT22;8182;55.648;13.208;2023-12-14T05:53:27;-1.90;1.00
16154;DHT22;8182;55.648;13.208;2023-12-14T05:55:54;-1.80;1.00
16154;DHT22;8182;55.648;13.208;2023-12-14T05:58:21;-1.80;1.00
16154;DHT22;8182;55.648;13.208;2023-12-14T06:00:49;-1.80;1.00
16154;DHT22;8182;55.648;13.208;2023-12-14T06:03:16;-1.80;1.00
16154;DHT22;8182;55.648;13.208;2023-12-14T06:05:43;-1.90;1.00
16154;DHT22;8182;55.648;13.208;2023-12-14T06:08:12;-1.90;1.00
16154;DHT22;8182;55.648;13.208;2023-12-14T06:10:39;-1.80;1.00
16154;DHT22;8182;55.648;13.208;2023-12-14T06:13:06;-1.90;1.00
16154;DHT22;8182;55.648;13.208;2023-12-14T06:15:33;-1.90;1.00
16154;DHT22;8182;55.648;13.208;2023-12-14T06:18:00;-2.00;1.00
16154;DHT22;8182;55.648;13.208;2023-12-14T06:20:27;-2.00;1.00
16154;DHT22;8182;55.648;13.208;2023-12-14T06:22:54;-1.80;1.00
16154;DHT22;8182;55.648;13.208;2023-12-14T06:25:23;-1.80;1.00
16154;DHT22;8182;55.648;13.208;2023-12-14T06:27:50;-1.80;1.00
16154;DHT22;8182;55.648;13.208;2023-12-14T06:30:17;-1.80;1.00
16154;DHT22;8182;55.648;13.208;2023-12-14T06:32:44;-1.80;1.00
16154;DHT22;8182;55.648;13.208;2023-12-14T06:35:11;-1.80;1.00
16154;DHT22;8182;55.648;13.208;2023-12-14T06:37:38;-1.70;1.00
16154;DHT22;8182;55.648;13.208;2023-12-14T06:40:08;-1.70;1.00
16154;DHT22;8182;55.648;13.208;2023-12-14T06:42:37;-1.90;1.00
16154;DHT22;8182;55.648;13.208;2023-12-14T06:45:04;-2.10;1.00
16154;DHT22;8182;55.648;13.208;2023-12-14T06:47:31;-2.10;1.00
16154;DHT22;8182;55.648;13.208;2023-12-14T06:49:59;-2.20;1.00
16154;DHT22;8182;55.648;13.208;2023-12-14T06:52:27;-2.20;1.00
16154;DHT22;8182;55.648;13.208;2023-12-14T06:54:54;-2.10;1.00
16154;DHT22;8182;55.648;13.208;2023-12-14T06:57:22;-2.10;1.00
16154;DHT22;8182;55.648;13.208;2023-12-14T06:59:51;-2.20;1.00
16154;DHT22;8182;55.648;13.208;2023-12-14T07:02:17;-2.00;1.00
16154;DHT22;8182;55.648;13.208;2023-12-14T07:04:44;-1.90;1.00
16154;DHT22;8182;55.648;13.208;2023-12-14T07:07:12;-1.80;1.00
16154;DHT22;8182;55.648;13.208;2023-12-14T07:09:38;-1.80;1.00
16154;DHT22;8182;55.648;13.208;2023-12-14T07:12:06;-1.80;1.00
16154;DHT22;8182;55.648;13.208;2023-12-14T07:14:33;-1.80;1.00
16154;DHT22;8182;55.648;13.208;2023-12-14T07:17:02;-2.00;1.00
16154;DHT22;8182;55.648;13.208;2023-12-14T07:19:29;-2.10;1.00
16154;DHT22;8182;55.648;13.208;2023-12-14T07:21:55;-2.30;1.00
16154;DHT22;8182;55.648;13.208;2023-12-14T07:24:22;-2.50;1.00
16154;DHT22;8182;55.648;13.208;2023-12-14T07:26:49;-2.70;1.00
16154;DHT22;8182;55.648;13.208;2023-12-14T07:29:16;-2.90;1.00
16154;DHT22;8182;55.648;13.208;2023-12-14T07:31:43;-2.80;1.00
16154;DHT22;8182;55.648;13.208;2023-12-14T07:34:11;-2.50;1.00
16154;DHT22;8182;55.648;13.208;2023-12-14T07:36:38;-2.70;1.00
16154;DHT22;8182;55.648;13.208;2023-12-14T07:39:05;-2.80;1.00
16154;DHT22;8182;55.648;13.208;2023-12-14T07:41:34;-2.90;1.00
16154;DHT22;8182;55.648;13.208;2023-12-14T07:44:01;-2.90;1.00
16154;DHT22;8182;55.648;13.208;2023-12-14T07:46:28;-2.90;1.00
16154;DHT22;8182;55.648;13.208;2023-12-14T07:48:55;-2.90;1.00
16154;DHT22;8182;55.648;13.208;2023-12-14T07:51:24;-2.90;1.00
16154;DHT22;8182;55.648;13.208;2023-12-14T07:53:51;-2.60;1.00
16154;DHT22;8182;55.648;13.208;2023-12-14T07:56:18;-2.30;1.00
16154;DHT22;8182;55.648;13.208;2023-12-14T07:58:45;-2.10;1.00
16154;DHT22;8182;55.648;13.208;2023-12-14T08:01:12;-2.10;1.00
16154;DHT22;8182;55.648;13.208;2023-12-14T08:03:38;-2.20;1.00
16154;DHT22;8182;55.648;13.208;2023-12-14T08:06:06;-2.40;1.00
16154;DHT22;8182;55.648;13.208;2023-12-14T08:08:35;-2.50;1.00
16154;DHT22;8182;55.648;13.208;2023-12-14T08:11:03;-2.60;1.00
16154;DHT22;8182;55.648;13.208;2023-12-14T08:13:30;-2.60;1.00
16154;DHT22;8182;55.648;13.208;2023-12-14T08:15:57;-2.40;1.00
16154;DHT22;8182;55.648;13.208;2023-12-14T08:18:24;-2.20;1.00
16154;DHT22;8182;55.648;13.208;2023-12-14T08:20:51;-2.00;1.00
16154;DHT22;8182;55.648;13.208;2023-12-14T08:23:20;-2.10;1.00
16154;DHT22;8182;55.648;13.208;2023-12-14T08:25:50;-2.20;1.00
16154;DHT22;8182;55.648;13.208;2023-12-14T08:28:17;-2.10;1.00
16154;DHT22;8182;55.648;13.208;2023-12-14T08:30:44;-1.90;1.00
16154;DHT22;8182;55.648;13.208;2023-12-14T08:33:11;-1.70;1.00
16154;DHT22;8182;55.648;13.208;2023-12-14T08:35:38;-1.60;1.00
16154;DHT22;8182;55.648;13.208;2023-12-14T08:38:05;-1.60;1.00
16154;DHT22;8182;55.648;13.208;2023-12-14T08:40:32;-1.60;1.00
16154;DHT22;8182;55.648;13.208;2023-12-14T08:43:00;-1.60;1.00
16154;DHT22;8182;55.648;13.208;2023-12-14T08:45:28;-1.50;1.00
16154;DHT22;8182;55.648;13.208;2023-12-14T08:47:55;-1.40;1.00
16154;DHT22;8182;55.648;13.208;2023-12-14T08:50:23;-1.30;1.00
16154;DHT22;8182;55.648;13.208;2023-12-14T08:52:51;-1.20;1.00
16154;DHT22;8182;55.648;13.208;2023-12-14T08:55:19;-1.30;1.00
16154;DHT22;8182;55.648;13.208;2023-12-14T08:57:46;-0.30;1.00
16154;DHT22;8182;55.648;13.208;2023-12-14T09:00:15;0.90;1.00
16154;DHT22;8182;55.648;13.208;2023-12-14T09:02:43;0.60;1.00
16154;DHT22;8182;55.648;13.208;2023-12-14T09:05:12;0.20;1.00
16154;DHT22;8182;55.648;13.208;2023-12-14T09:07:40;1.00;1.00
16154;DHT22;8182;55.648;13.208;2023-12-14T09:10:08;0.20;1.00
16154;DHT22;8182;55.648;13.208;2023-12-14T09:12:35;-0.20;1.00
16154;DHT22;8182;55.648;13.208;2023-12-14T09:15:03;-0.20;1.00
16154;DHT22;8182;55.648;13.208;2023-12-14T09:17:32;-0.30;1.00
16154;DHT22;8182;55.648;13.208;2023-12-14T09:20:00;-0.10;1.00
16154;DHT22;8182;55.648;13.208;2023-12-14T09:22:30;0.10;1.00
16154;DHT22;8182;55.648;13.208;2023-12-14T09:24:57;0.40;1.00
16154;DHT22;8182;55.648;13.208;2023-12-14T09:27:24;0.70;1.00
16154;DHT22;8182;55.648;13.208;2023-12-14T09:29:51;1.00;1.00
16154;DHT22;8182;55.648;13.208;2023-12-14T09:32:18;0.90;1.00
16154;DHT22;8182;55.648;13.208;2023-12-14T09:34:47;0.70;1.00
16154;DHT22;8182;55.648;13.208;2023-12-14T09:37:14;0.70;1.00
16154;DHT22;8182;55.648;13.208;2023-12-14T09:39:41;0.70;1.00
16154;DHT22;8182;55.648;13.208;2023-12-14T09:42:08;0.90;1.00
16154;DHT22;8182;55.648;13.208;2023-12-14T09:44:35;1.20;1.00
16154;DHT22;8182;55.648;13.208;2023-12-14T09:47:04;1.50;1.00
16154;DHT22;8182;55.648;13.208;2023-12-14T09:49:32;1.60;1.00
16154;DHT22;8182;55.648;13.208;2023-12-14T09:52:01;1.60;1.00
16154;DHT22;8182;55.648;13.208;2023-12-14T09:54:28;1.40;1.00
16154;DHT22;8182;55.648;13.208;2023-12-14T09:56:55;1.40;1.00
16154;DHT22;8182;55.648;13.208;2023-12-14T09:59:22;1.70;1.00
16154;DHT22;8182;55.648;13.208;2023-12-14T10:01:49;1.50;1.00
16154;DHT22;8182;55.648;13.208;2023-12-14T10:04:17;1.40;1.00
16154;DHT22;8182;55.648;13.208;2023-12-14T10:06:46;1.50;1.00
16154;DHT22;8182;55.648;13.208;2023-12-14T10:09:15;1.60;1.00
16154;DHT22;8182;55.648;13.208;2023-12-14T10:11:44;1.70;1.00
16154;DHT22;8182;55.648;13.208;2023-12-14T10:14:18;1.90;1.00
16154;DHT22;8182;55.648;13.208;2023-12-14T10:16:47;1.90;1.00
16154;DHT22;8182;55.648;13.208;2023-12-14T10:19:16;1.70;1.00
16154;DHT22;8182;55.648;13.208;2023-12-14T10:21:43;1.60;1.00
16154;DHT22;8182;55.648;13.208;2023-12-14T10:24:11;1.60;1.00
16154;DHT22;8182;55.648;13.208;2023-12-14T10:26:40;1.60;1.00
16154;DHT22;8182;55.648;13.208;2023-12-14T10:29:07;1.80;1.00
16154;DHT22;8182;55.648;13.208;2023-12-14T10:31:36;2.10;1.00
16154;DHT22;8182;55.648;13.208;2023-12-14T10:34:04;2.30;1.00
16154;DHT22;8182;55.648;13.208;2023-12-14T10:36:31;2.60;1.00
16154;DHT22;8182;55.648;13.208;2023-12-14T10:39:00;2.90;1.00
16154;DHT22;8182;55.648;13.208;2023-12-14T10:41:31;2.50;1.00
16154;DHT22;8182;55.648;13.208;2023-12-14T10:44:02;2.40;1.00
16154;DHT22;8182;55.648;13.208;2023-12-14T10:46:29;2.60;1.00
16154;DHT22;8182;55.648;13.208;2023-12-14T10:48:57;3.80;1.00
16154;DHT22;8182;55.648;13.208;2023-12-14T10:51:25;4.20;1.00
16154;DHT22;8182;55.648;13.208;2023-12-14T10:53:52;4.00;1.00
16154;DHT22;8182;55.648;13.208;2023-12-14T10:56:20;3.40;1.00
16154;DHT22;8182;55.648;13.208;2023-12-14T10:58:50;4.00;1.00
16154;DHT22;8182;55.648;13.208;2023-12-14T11:01:21;3.50;1.00
16154;DHT22;8182;55.648;13.208;2023-12-14T11:03:50;2.90;1.00
16154;DHT22;8182;55.648;13.208;2023-12-14T11:06:21;2.80;1.00
16154;DHT22;8182;55.648;13.208;2023-12-14T11:08:49;2.90;1.00
16154;DHT22;8182;55.648;13.208;2023-12-14T11:11:17;3.50;1.00
16154;DHT22;8182;55.648;13.208;2023-12-14T11:13:47;3.40;1.00
16154;DHT22;8182;55.648;13.208;2023-12-14T11:16:21;3.70;1.00
16154;DHT22;8182;55.648;13.208;2023-12-14T11:19:24;4.00;1.00
16154;DHT22;8182;55.648;13.208;2023-12-14T11:22:12;3.30;1.00
16154;DHT22;8182;55.648;13.208;2023-12-14T11:24:51;3.50;1.00
16154;DHT22;8182;55.648;13.208;2023-12-14T11:27:26;3.50;1.00
16154;DHT22;8182;55.648;13.208;2023-12-14T11:29:54;3.20;1.00
16154;DHT22;8182;55.648;13.208;2023-12-14T11:32:25;3.20;1.00
16154;DHT22;8182;55.648;13.208;2023-12-14T11:34:52;3.00;1.00
16154;DHT22;8182;55.648;13.208;2023-12-14T11:37:18;3.10;1.00
16154;DHT22;8182;55.648;13.208;2023-12-14T11:39:49;3.10;1.00
16154;DHT22;8182;55.648;13.208;2023-12-14T11:42:18;2.70;1.00
16154;DHT22;8182;55.648;13.208;2023-12-14T11:44:45;2.90;1.00
16154;DHT22;8182;55.648;13.208;2023-12-14T11:47:12;2.50;1.00
16154;DHT22;8182;55.648;13.208;2023-12-14T11:49:41;2.50;1.00
16154;DHT22;8182;55.648;13.208;2023-12-14T11:52:08;2.30;1.00
16154;DHT22;8182;55.648;13.208;2023-12-14T11:54:37;2.20;1.00
16154;DHT22;8182;55.648;13.208;2023-12-14T11:57:04;2.30;1.00
16154;DHT22;8182;55.648;13.208;2023-12-14T11:59:34;2.40;1.00
16154;DHT22;8182;55.648;13.208;2023-12-14T12:02:02;2.30;1.00
16154;DHT22;8182;55.648;13.208;2023-12-14T12:04:29;2.20;1.00
16154;DHT22;8182;55.648;13.208;2023-12-14T12:07:01;2.20;1.00
16154;DHT22;8182;55.648;13.208;2023-12-14T12:09:34;2.10;1.00
16154;DHT22;8182;55.648;13.208;2023-12-14T12:12:01;2.10;1.00
16154;DHT22;8182;55.648;13.208;2023-12-14T12:14:28;1.90;1.00
16154;DHT22;8182;55.648;13.208;2023-12-14T12:16:55;2.10;1.00
16154;DHT22;8182;55.648;13.208;2023-12-14T12:19:22;2.00;1.00
16154;DHT22;8182;55.648;13.208;2023-12-14T12:21:49;2.00;1.00
16154;DHT22;8182;55.648;13.208;2023-12-14T12:24:18;2.00;1.00
16154;DHT22;8182;55.648;13.208;2023-12-14T12:26:45;2.10;1.00
16154;DHT22;8182;55.648;13.208;2023-12-14T12:29:12;2.00;1.00
16154;DHT22;8182;55.648;13.208;2023-12-14T12:31:39;2.00;1.00
16154;DHT22;8182;55.648;13.208;2023-12-14T12:34:08;2.00;1.00
16154;DHT22;8182;55.648;13.208;2023-12-14T12:36:35;1.90;1.00
16154;DHT22;8182;55.648;13.208;2023-12-14T12:39:03;1.90;1.00
16154;DHT22;8182;55.648;13.208;2023-12-14T12:41:33;1.80;1.00
16154;DHT22;8182;55.648;13.208;2023-12-14T12:44:00;1.70;1.00
16154;DHT22;8182;55.648;13.208;2023-12-14T12:46:31;1.70;1.00
16154;DHT22;8182;55.648;13.208;2023-12-14T12:49:00;1.70;1.00
16154;DHT22;8182;55.648;13.208;2023-12-14T12:51:27;1.70;1.00
16154;DHT22;8182;55.648;13.208;2023-12-14T12:53:55;1.70;1.00
16154;DHT22;8182;55.648;13.208;2023-12-14T12:56:22;1.70;1.00
16154;DHT22;8182;55.648;13.208;2023-12-14T12:58:51;1.70;1.00
16154;DHT22;8182;55.648;13.208;2023-12-14T13:01:19;1.70;1.00
16154;DHT22;8182;55.648;13.208;2023-12-14T13:03:51;1.70;1.00
16154;DHT22;8182;55.648;13.208;2023-12-14T13:06:19;1.70;1.00
16154;DHT22;8182;55.648;13.208;2023-12-14T13:08:46;1.70;1.00
16154;DHT22;8182;55.648;13.208;2023-12-14T13:11:12;1.80;1.00
16154;DHT22;8182;55.648;13.208;2023-12-14T13:13:40;1.80;1.00
16154;DHT22;8182;55.648;13.208;2023-12-14T13:16:08;1.80;1.00
16154;DHT22;8182;55.648;13.208;2023-12-14T13:18:36;1.90;1.00
16154;DHT22;8182;55.648;13.208;2023-12-14T13:21:03;1.80;1.00
16154;DHT22;8182;55.648;13.208;2023-12-14T13:23:30;1.70;1.00
16154;DHT22;8182;55.648;13.208;2023-12-14T13:25:58;1.70;1.00
16154;DHT22;8182;55.648;13.208;2023-12-14T13:28:25;1.60;1.00
16154;DHT22;8182;55.648;13.208;2023-12-14T13:30:52;1.60;1.00
16154;DHT22;8182;55.648;13.208;2023-12-14T13:33:21;1.60;1.00
16154;DHT22;8182;55.648;13.208;2023-12-14T13:35:48;1.60;1.00
16154;DHT22;8182;55.648;13.208;2023-12-14T13:38:15;1.60;1.00
16154;DHT22;8182;55.648;13.208;2023-12-14T13:40:43;1.50;1.00
16154;DHT22;8182;55.648;13.208;2023-12-14T13:43:10;1.50;1.00
16154;DHT22;8182;55.648;13.208;2023-12-14T13:45:37;1.50;1.00
16154;DHT22;8182;55.648;13.208;2023-12-14T13:48:05;1.60;1.00
16154;DHT22;8182;55.648;13.208;2023-12-14T13:50:34;1.60;1.00
16154;DHT22;8182;55.648;13.208;2023-12-14T13:53:02;1.60;1.00
16154;DHT22;8182;55.648;13.208;2023-12-14T13:55:30;1.60;1.00
16154;DHT22;8182;55.648;13.208;2023-12-14T13:57:57;1.60;1.00
16154;DHT22;8182;55.648;13.208;2023-12-14T14:00:26;1.50;1.00
16154;DHT22;8182;55.648;13.208;2023-12-14T14:02:53;1.60;1.00
16154;DHT22;8182;55.648;13.208;2023-12-14T14:05:20;1.50;1.00
16154;DHT22;8182;55.648;13.208;2023-12-14T14:07:49;1.50;1.00
16154;DHT22;8182;55.648;13.208;2023-12-14T14:10:17;1.40;1.00
16154;DHT22;8182;55.648;13.208;2023-12-14T14:12:44;1.40;1.00
16154;DHT22;8182;55.648;13.208;2023-12-14T14:15:12;1.40;1.00
16154;DHT22;8182;55.648;13.208;2023-12-14T14:17:39;1.30;1.00
16154;DHT22;8182;55.648;13.208;2023-12-14T14:20:06;1.30;1.00
16154;DHT22;8182;55.648;13.208;2023-12-14T14:22:36;1.30;1.00
16154;DHT22;8182;55.648;13.208;2023-12-14T14:25:05;1.20;1.00
16154;DHT22;8182;55.648;13.208;2023-12-14T14:27:33;1.20;1.00
16154;DHT22;8182;55.648;13.208;2023-12-14T14:30:00;1.20;1.00
16154;DHT22;8182;55.648;13.208;2023-12-14T14:32:27;1.10;1.00
16154;DHT22;8182;55.648;13.208;2023-12-14T14:34:56;1.10;1.00
16154;DHT22;8182;55.648;13.208;2023-12-14T14:37:24;1.10;1.00
16154;DHT22;8182;55.648;13.208;2023-12-14T14:39:51;1.00;1.00
16154;DHT22;8182;55.648;13.208;2023-12-14T14:42:20;1.00;1.00
16154;DHT22;8182;55.648;13.208;2023-12-14T14:44:46;1.00;1.00
16154;DHT22;8182;55.648;13.208;2023-12-14T14:47:13;0.90;1.00
16154;DHT22;8182;55.648;13.208;2023-12-14T14:49:40;0.90;1.00
16154;DHT22;8182;55.648;13.208;2023-12-14T14:52:07;0.90;1.00
16154;DHT22;8182;55.648;13.208;2023-12-14T14:54:34;0.90;1.00
16154;DHT22;8182;55.648;13.208;2023-12-14T14:57:01;0.90;1.00
16154;DHT22;8182;55.648;13.208;2023-12-14T14:59:32;0.90;1.00
16154;DHT22;8182;55.648;13.208;2023-12-14T15:01:59;0.90;1.00
16154;DHT22;8182;55.648;13.208;2023-12-14T15:04:27;0.90;1.00
16154;DHT22;8182;55.648;13.208;2023-12-14T15:06:54;0.90;1.00
16154;DHT22;8182;55.648;13.208;2023-12-14T15:09:21;0.90;1.00
16154;DHT22;8182;55.648;13.208;2023-12-14T15:11:50;0.70;1.00
16154;DHT22;8182;55.648;13.208;2023-12-14T15:14:16;0.90;1.00
16154;DHT22;8182;55.648;13.208;2023-12-14T15:16:45;0.90;1.00
16154;DHT22;8182;55.648;13.208;2023-12-14T15:19:12;0.90;1.00
16154;DHT22;8182;55.648;13.208;2023-12-14T15:21:39;1.00;1.00
16154;DHT22;8182;55.648;13.208;2023-12-14T15:24:07;0.90;1.00
16154;DHT22;8182;55.648;13.208;2023-12-14T15:26:34;0.90;1.00
16154;DHT22;8182;55.648;13.208;2023-12-14T15:29:01;0.80;1.00
16154;DHT22;8182;55.648;13.208;2023-12-14T15:31:29;0.80;1.00
16154;DHT22;8182;55.648;13.208;2023-12-14T15:33:57;0.90;1.00
16154;DHT22;8182;55.648;13.208;2023-12-14T15:36:26;0.80;1.00
16154;DHT22;8182;55.648;13.208;2023-12-14T15:38:55;0.80;1.00
16154;DHT22;8182;55.648;13.208;2023-12-14T15:41:22;0.90;1.00
16154;DHT22;8182;55.648;13.208;2023-12-14T15:43:49;0.90;1.00
16154;DHT22;8182;55.648;13.208;2023-12-14T15:46:17;0.80;1.00
16154;DHT22;8182;55.648;13.208;2023-12-14T15:48:44;0.60;1.00
16154;DHT22;8182;55.648;13.208;2023-12-14T15:51:14;0.70;1.00
16154;DHT22;8182;55.648;13.208;2023-12-14T15:53:41;0.60;1.00
16154;DHT22;8182;55.648;13.208;2023-12-14T15:56:08;0.80;1.00